Time;durP1;ratioP1;P1;durP2;ratioP2;P2;SDS_P1;SDS_P2;PMS_P1;PMS_P2;Temp;Humidity;BMP_temperature;BMP_pressure;BME280_temperature;BME280_humidity;BME280_pressure;Samples;Min_cycle;Max_cycle;Signal;HPM_P1;HPM_P2
2021/03/01 00:00:29;;;;;;;14.13;10.60;;;2.50;99.90;;;;;;5095188;28;20023;-69
2021/03/01 00:02:56;;;;;;;13.63;9.25;;;2.50;99.90;;;;;;5094593;28;20066;-69
2021/03/01 00:05:22;;;;;;;12.43;9.18;;;2.40;99.90;;;;;;5095167;28;20082;-69
2021/03/01 00:07:49;;;;;;;16.10;9.40;;;2.40;99.90;;;;;;5094688;28;20020;-69
2021/03/01 00:10:16;;;;;;;14.85;10.95;;;2.40;99.90;;;;;;5095009;28;20059;-69
2021/03/01 00:12:42;;;;;;;14.80;10.27;;;2.40;99.90;;;;;;5094872;28;20028;-70
2021/03/01 00:15:11;;;;;;;12.98;8.98;;;2.40;99.90;;;;;;5095326;28;20175;-68
2021/03/01 00:17:37;;;;;;;13.73;9.75;;;2.40;99.90;;;;;;5094748;28;20023;-69
2021/03/01 00:20:09;;;;;;;15.27;10.73;;;2.30;99.90;;;;;;5094690;28;20503;-69
2021/03/01 00:22:35;;;;;;;15.48;11.57;;;2.30;99.90;;;;;;5093209;28;20093;-69
2021/03/01 00:25:01;;;;;;;13.48;9.48;;;2.30;99.90;;;;;;5094530;28;20020;-69
2021/03/01 00:27:26;;;;;;;14.15;9.57;;;2.20;99.90;;;;;;5094454;28;20093;-69
2021/03/01 00:29:52;;;;;;;18.30;9.73;;;2.30;99.90;;;;;;5094236;28;20023;-69
2021/03/01 00:32:18;;;;;;;13.52;10.90;;;2.20;99.90;;;;;;5095079;28;20374;-70
2021/03/01 00:34:43;;;;;;;20.85;11.10;;;2.20;99.90;;;;;;5093928;28;20491;-70
2021/03/01 00:37:09;;;;;;;11.60;9.40;;;2.10;99.90;;;;;;5095855;28;20021;-69
2021/03/01 00:39:34;;;;;;;13.43;9.50;;;2.10;99.90;;;;;;5095606;28;20026;-68
2021/03/01 00:42:00;;;;;;;15.43;10.52;;;2.00;99.90;;;;;;5094145;28;20024;-68
2021/03/01 00:44:26;;;;;;;17.73;11.73;;;2.00;99.90;;;;;;5092398;28;20039;-68
2021/03/01 00:46:51;;;;;;;17.73;11.38;;;1.90;99.90;;;;;;5094089;28;20073;-69
2021/03/01 00:49:17;;;;;;;18.23;11.85;;;1.90;99.90;;;;;;5094786;28;20499;-69
2021/03/01 00:51:43;;;;;;;16.55;11.10;;;1.90;99.90;;;;;;5094209;28;20115;-69
2021/03/01 00:54:08;;;;;;;24.63;11.07;;;1.90;99.90;;;;;;5094633;28;20101;-69
2021/03/01 00:56:34;;;;;;;15.45;12.30;;;1.90;99.90;;;;;;5093854;28;20031;-70
2021/03/01 00:58:59;;;;;;;17.50;12.05;;;1.90;99.90;;;;;;5093665;28;20024;-69
2021/03/01 01:01:25;;;;;;;18.85;12.00;;;1.80;99.90;;;;;;5093694;28;20020;-70
2021/03/01 01:03:51;;;;;;;18.45;12.55;;;1.80;99.90;;;;;;5093693;28;20059;-70
2021/03/01 01:06:16;;;;;;;18.83;13.70;;;1.80;99.90;;;;;;5093681;28;20512;-69
2021/03/01 01:08:42;;;;;;;18.58;13.30;;;1.70;99.90;;;;;;5093406;28;20497;-68
2021/03/01 01:11:07;;;;;;;15.10;12.05;;;1.80;99.90;;;;;;5093849;28;20031;-69
2021/03/01 01:13:33;;;;;;;17.50;11.65;;;1.90;99.90;;;;;;5093666;28;20024;-69
2021/03/01 01:15:59;;;;;;;17.80;12.07;;;1.80;99.90;;;;;;5093526;28;20013;-69
2021/03/01 01:18:26;;;;;;;18.23;12.18;;;1.80;99.90;;;;;;5093600;28;20100;-69
2021/03/01 01:20:52;;;;;;;17.08;12.15;;;1.60;99.90;;;;;;5093436;28;20021;-68
2021/03/01 01:23:18;;;;;;;15.93;11.80;;;1.60;99.90;;;;;;5094187;28;20025;-71
2021/03/01 01:25:43;;;;;;;18.80;13.23;;;1.60;99.90;;;;;;5098161;28;20039;-70
2021/03/01 01:28:09;;;;;;;17.40;12.13;;;1.60;99.90;;;;;;5096095;28;20516;-69
2021/03/01 01:30:35;;;;;;;19.88;12.65;;;1.70;99.90;;;;;;5094113;28;20031;-68
2021/03/01 01:33:00;;;;;;;18.50;12.45;;;1.60;99.90;;;;;;5093153;28;20154;-69
2021/03/01 01:35:26;;;;;;;17.58;12.10;;;1.60;99.90;;;;;;5092326;28;20078;-69
2021/03/01 01:37:51;;;;;;;15.45;12.70;;;1.60;99.90;;;;;;5093581;28;20027;-70
2021/03/01 01:40:20;;;;;;;16.52;12.20;;;1.60;99.90;;;;;;5093978;28;20076;-70
2021/03/01 01:42:47;;;;;;;16.70;13.27;;;1.60;99.90;;;;;;5093898;28;20024;-69
2021/03/01 01:45:15;;;;;;;18.40;12.80;;;1.50;99.90;;;;;;5095794;28;20369;-71
2021/03/01 01:47:42;;;;;;;18.02;13.32;;;1.50;99.90;;;;;;5095977;28;20031;-71
2021/03/01 01:50:09;;;;;;;14.77;11.35;;;1.40;99.90;;;;;;5094668;28;20066;-71
2021/03/01 01:52:35;;;;;;;15.63;12.70;;;1.50;99.90;;;;;;5093945;28;20039;-69
2021/03/01 01:55:05;;;;;;;15.68;12.32;;;1.50;99.90;;;;;;5094624;28;20027;-69
2021/03/01 01:57:31;;;;;;;17.33;11.93;;;1.40;99.90;;;;;;5093084;28;20016;-68
2021/03/01 01:59:57;;;;;;;21.08;14.38;;;1.40;99.90;;;;;;5092744;28;20077;-69
2021/03/01 02:02:23;;;;;;;18.67;12.73;;;1.40;99.90;;;;;;5093668;28;20020;-70
2021/03/01 02:04:55;;;;;;;16.30;12.05;;;1.40;99.90;;;;;;5093018;28;20043;-69
2021/03/01 02:07:23;;;;;;;20.73;12.85;;;1.40;99.90;;;;;;5093084;28;20039;-69
2021/03/01 02:10:01;;;;;;;22.40;13.40;;;1.40;99.90;;;;;;5093267;28;20403;-70
2021/03/01 02:12:39;;;;;;;21.65;14.30;;;1.40;99.90;;;;;;5093228;28;20028;-69
2021/03/01 02:15:13;;;;;;;22.55;13.30;;;1.40;99.90;;;;;;5093111;28;20081;-69
2021/03/01 02:17:39;;;;;;;23.65;13.18;;;1.30;99.90;;;;;;5092366;28;20383;-69
2021/03/01 02:20:10;;;;;;;19.60;14.07;;;1.30;99.90;;;;;;5093012;28;20031;-68
2021/03/01 02:22:36;;;;;;;21.95;13.85;;;1.20;99.90;;;;;;5091061;28;20028;-67
2021/03/01 02:25:07;;;;;;;22.40;13.25;;;1.30;99.90;;;;;;5092696;28;20115;-68
2021/03/01 02:27:40;;;;;;;21.45;13.75;;;1.20;99.90;;;;;;5092349;28;20089;-69
2021/03/01 02:30:17;;;;;;;23.88;13.63;;;1.20;99.90;;;;;;5090798;28;20032;-68
2021/03/01 02:32:45;;;;;;;24.27;14.27;;;1.10;99.90;;;;;;5091711;28;20020;-69
2021/03/01 02:35:13;;;;;;;25.48;13.93;;;1.10;99.90;;;;;;5092025;28;20388;-69
2021/03/01 02:37:40;;;;;;;26.35;14.15;;;1.10;99.90;;;;;;5091990;28;20016;-68
2021/03/01 02:40:09;;;;;;;27.02;14.32;;;1.00;99.90;;;;;;5092291;28;20024;-68
2021/03/01 02:42:37;;;;;;;23.27;14.65;;;1.00;99.90;;;;;;5099746;28;20142;-68
2021/03/01 02:45:04;;;;;;;18.98;12.82;;;1.00;99.90;;;;;;5106974;28;20027;-68
2021/03/01 02:47:30;;;;;;;20.23;13.15;;;1.00;99.90;;;;;;5110562;28;20373;-68
2021/03/01 02:49:57;;;;;;;23.08;13.25;;;1.00;99.90;;;;;;5106879;28;20032;-68
2021/03/01 02:52:24;;;;;;;21.98;12.85;;;1.00;99.90;;;;;;5103696;28;20035;-68
2021/03/01 02:54:51;;;;;;;21.58;13.85;;;0.90;99.90;;;;;;5096141;28;20395;-69
2021/03/01 02:57:19;;;;;;;23.80;14.38;;;1.00;99.90;;;;;;5096815;28;20437;-69
2021/03/01 02:59:45;;;;;;;21.17;12.05;;;0.90;99.90;;;;;;5096324;28;20124;-69
2021/03/01 03:02:11;;;;;;;21.00;12.85;;;0.90;99.90;;;;;;5096220;28;20516;-68
2021/03/01 03:04:39;;;;;;;19.08;12.90;;;0.90;99.90;;;;;;5096087;28;20044;-68
2021/03/01 03:07:06;;;;;;;22.63;13.52;;;0.90;99.90;;;;;;5096154;28;20028;-69
2021/03/01 03:09:32;;;;;;;18.38;12.50;;;0.90;99.90;;;;;;5096220;28;20069;-70
2021/03/01 03:12:00;;;;;;;22.45;13.30;;;0.90;99.90;;;;;;5095729;28;20039;-68
2021/03/01 03:14:27;;;;;;;26.08;13.23;;;0.90;99.90;;;;;;5095426;28;20031;-69
2021/03/01 03:16:56;;;;;;;18.40;12.07;;;0.80;99.90;;;;;;5095596;28;20368;-69
2021/03/01 03:19:22;;;;;;;21.52;13.68;;;0.80;99.90;;;;;;5095778;28;20107;-69
2021/03/01 03:21:48;;;;;;;20.75;13.43;;;0.80;99.90;;;;;;5095520;28;20020;-68
2021/03/01 03:24:14;;;;;;;20.42;13.00;;;0.80;99.90;;;;;;5095727;28;20477;-68
2021/03/01 03:26:40;;;;;;;19.77;12.70;;;0.80;99.90;;;;;;5095648;28;20063;-68
2021/03/01 03:29:06;;;;;;;20.48;12.48;;;0.80;99.90;;;;;;5095645;28;20028;-69
2021/03/01 03:31:32;;;;;;;20.70;13.48;;;0.80;99.90;;;;;;5095471;28;20052;-69
2021/03/01 03:33:57;;;;;;;19.77;12.68;;;0.70;99.90;;;;;;5095379;28;20028;-69
2021/03/01 03:36:28;;;;;;;17.83;11.73;;;0.80;99.90;;;;;;5095389;28;20043;-68
2021/03/01 03:38:58;;;;;;;23.13;12.50;;;0.70;99.90;;;;;;5095608;28;20496;-68
2021/03/01 03:41:26;;;;;;;;;;;0.70;99.90;;;;;;5095674;28;20427;-69
2021/03/01 03:43:52;;;;;;;21.52;13.35;;;0.70;99.90;;;;;;5093929;28;19965;-69
2021/03/01 03:46:18;;;;;;;23.00;12.13;;;0.90;99.90;;;;;;5095365;28;20407;-68
2021/03/01 03:48:49;;;;;;;17.75;12.23;;;1.00;99.90;;;;;;5093745;28;20119;-69
2021/03/01 03:51:16;;;;;;;20.63;12.43;;;1.00;99.90;;;;;;5094013;28;20544;-68
2021/03/01 03:53:50;;;;;;;22.52;13.50;;;0.90;99.90;;;;;;5094797;28;20043;-69
2021/03/01 03:56:22;;;;;;;16.80;12.73;;;0.80;99.90;;;;;;5094721;28;20028;-70
2021/03/01 03:58:51;;;;;;;21.52;12.43;;;0.80;99.90;;;;;;5095003;28;20016;-69
2021/03/01 04:01:19;;;;;;;23.23;12.90;;;0.70;99.90;;;;;;5095281;28;20058;-69
2021/03/01 04:03:48;;;;;;;20.80;11.55;;;0.70;99.90;;;;;;5095327;28;20055;-69
2021/03/01 04:06:17;;;;;;;19.10;13.20;;;0.60;99.90;;;;;;5094059;28;20030;-70
2021/03/01 04:08:45;;;;;;;19.00;11.95;;;0.60;99.90;;;;;;5095052;28;20047;-69
2021/03/01 04:11:11;;;;;;;21.80;13.50;;;0.60;99.90;;;;;;5095451;28;20060;-69
2021/03/01 04:13:42;;;;;;;24.70;12.95;;;0.50;99.90;;;;;;5093660;28;20119;-68
2021/03/01 04:16:10;;;;;;;16.27;12.02;;;0.60;99.90;;;;;;5093573;28;20024;-69
2021/03/01 04:18:38;;;;;;;17.35;13.15;;;0.60;99.90;;;;;;5097320;28;20047;-69
2021/03/01 04:21:07;;;;;;;17.20;12.95;;;0.60;99.90;;;;;;5102876;28;20035;-70
2021/03/01 04:23:34;;;;;;;15.38;12.18;;;0.70;99.90;;;;;;5097719;28;20028;-69
2021/03/01 04:26:02;;;;;;;21.10;13.25;;;0.60;99.90;;;;;;5094607;28;20391;-69
2021/03/01 04:28:28;;;;;;;18.45;11.98;;;0.60;99.90;;;;;;5094447;28;20032;-68
2021/03/01 04:30:58;;;;;;;23.23;12.40;;;0.60;99.90;;;;;;5094480;28;20028;-69
2021/03/01 04:33:25;;;;;;;17.90;11.77;;;0.60;99.90;;;;;;5093898;28;20403;-68
2021/03/01 04:35:55;;;;;;;22.05;13.75;;;0.60;99.90;;;;;;5094470;28;20477;-69
2021/03/01 04:38:20;;;;;;;17.92;11.50;;;0.50;99.90;;;;;;5094940;28;20027;-69
2021/03/01 04:40:46;;;;;;;23.13;12.80;;;0.50;99.90;;;;;;5095531;28;20028;-70
2021/03/01 04:43:14;;;;;;;17.27;11.43;;;0.50;99.90;;;;;;5096262;28;20390;-70
2021/03/01 04:45:41;;;;;;;25.13;13.52;;;0.50;99.90;;;;;;5095307;28;20426;-69
2021/03/01 04:48:09;;;;;;;20.40;13.07;;;0.50;99.90;;;;;;5094261;28;20028;-69
2021/03/01 04:50:36;;;;;;;24.48;13.05;;;0.40;99.90;;;;;;5094109;28;20055;-68
2021/03/01 04:53:01;;;;;;;19.33;12.70;;;0.50;99.90;;;;;;5093832;28;20436;-69
2021/03/01 04:55:27;;;;;;;18.33;12.93;;;0.40;99.90;;;;;;5094246;28;20063;-68
2021/03/01 04:57:55;;;;;;;25.30;12.93;;;0.40;99.90;;;;;;5094508;28;20411;-69
2021/03/01 05:00:23;;;;;;;17.67;11.70;;;0.50;99.90;;;;;;5095870;28;20145;-68
2021/03/01 05:02:50;;;;;;;18.73;12.85;;;0.50;99.90;;;;;;5095353;28;20035;-69
2021/03/01 05:05:15;;;;;;;29.05;12.48;;;0.40;99.90;;;;;;5094513;28;20431;-69
2021/03/01 05:07:42;;;;;;;22.00;14.05;;;0.50;99.90;;;;;;5094109;28;20028;-68
2021/03/01 05:10:09;;;;;;;23.65;14.77;;;0.40;99.90;;;;;;5093684;28;20028;-69
2021/03/01 05:12:35;;;;;;;23.73;14.93;;;0.40;99.90;;;;;;5093576;28;20039;-68
2021/03/01 05:15:01;;;;;;;29.13;15.35;;;0.30;99.90;;;;;;5093508;28;20032;-68
2021/03/01 05:17:27;;;;;;;22.73;14.35;;;0.30;99.90;;;;;;5093648;28;20437;-69
2021/03/01 05:19:52;;;;;;;19.73;14.10;;;0.30;99.90;;;;;;5092192;28;20496;-68
2021/03/01 05:22:18;;;;;;;23.63;13.60;;;0.30;99.90;;;;;;5093399;28;20028;-68
2021/03/01 05:24:43;;;;;;;20.13;13.88;;;0.30;1.00;;;;;;5093443;28;20086;-68
2021/03/01 05:27:09;;;;;;;24.10;12.48;;;0.30;1.00;;;;;;5093159;28;20027;-68
2021/03/01 05:29:35;;;;;;;27.42;12.70;;;0.40;99.90;;;;;;5093495;28;20406;-69
2021/03/01 05:32:00;;;;;;;21.00;12.85;;;0.50;99.90;;;;;;5093887;28;20189;-69
2021/03/01 05:34:26;;;;;;;22.67;12.75;;;0.50;99.90;;;;;;5092703;28;20028;-68
2021/03/01 05:36:52;;;;;;;18.38;12.75;;;0.50;99.90;;;;;;5093428;28;20066;-69
2021/03/01 05:39:17;;;;;;;19.40;13.27;;;0.40;99.90;;;;;;5093102;28;20021;-70
2021/03/01 05:41:46;;;;;;;20.65;12.65;;;0.30;99.90;;;;;;5092741;28;20106;-69
2021/03/01 05:44:12;;;;;;;23.60;13.18;;;0.30;99.90;;;;;;5092918;28;20028;-69
2021/03/01 05:46:41;;;;;;;22.45;12.63;;;0.30;99.90;;;;;;5092999;28;20522;-70
2021/03/01 05:49:08;;;;;;;19.38;12.18;;;0.30;99.90;;;;;;5091812;28;20051;-69
2021/03/01 05:51:36;;;;;;;19.65;12.15;;;0.30;99.90;;;;;;5093163;28;20031;-69
2021/03/01 05:54:02;;;;;;;20.58;13.68;;;0.30;99.90;;;;;;5092462;28;20020;-70
2021/03/01 05:56:29;;;;;;;19.48;13.13;;;0.20;99.90;;;;;;5093171;28;20024;-68
2021/03/01 05:58:55;;;;;;;19.20;13.00;;;0.20;99.90;;;;;;5092933;28;20368;-68
2021/03/01 06:01:23;;;;;;;25.52;13.05;;;0.20;99.90;;;;;;5092866;28;20111;-69
2021/03/01 06:03:49;;;;;;;23.48;12.77;;;0.20;1.00;;;;;;5092516;28;20036;-69
2021/03/01 06:06:15;;;;;;;22.50;13.88;;;0.20;1.00;;;;;;5092551;28;20058;-69
2021/03/01 06:08:41;;;;;;;22.15;13.15;;;0.30;99.90;;;;;;5092598;28;20064;-69
2021/03/01 06:11:08;;;;;;;18.98;13.50;;;0.30;99.90;;;;;;5092518;28;20282;-69
2021/03/01 06:13:35;;;;;;;23.58;12.88;;;0.50;99.90;;;;;;5091088;28;20028;-69
2021/03/01 06:16:02;;;;;;;18.63;12.35;;;0.70;99.90;;;;;;5092724;28;20027;-69
2021/03/01 06:18:28;;;;;;;19.98;13.38;;;0.80;99.90;;;;;;5092620;28;20016;-69
2021/03/01 06:21:11;;;;;;;18.23;12.65;;;0.70;99.90;;;;;;5092124;28;20028;-69
2021/03/01 06:23:38;;;;;;;17.75;13.13;;;0.80;99.90;;;;;;5092475;28;20035;-68
2021/03/01 06:26:42;;;;;;;22.90;13.55;;;0.80;99.90;;;;;;5090991;28;20491;-70
2021/03/01 06:29:09;;;;;;;20.92;13.35;;;0.90;99.90;;;;;;5010078;28;20034;-69
2021/03/01 06:31:43;;;;;;;25.48;13.10;;;0.90;99.90;;;;;;5010024;28;20029;-69
2021/03/01 06:34:28;;;;;;;24.17;13.77;;;0.90;99.90;;;;;;5053313;28;20456;-70
2021/03/01 06:37:17;;;;;;;29.25;13.80;;;0.90;99.90;;;;;;5092416;28;20020;-70
2021/03/01 06:39:51;;;;;;;25.13;13.25;;;0.90;99.90;;;;;;5092394;28;20024;-69
2021/03/01 06:42:17;;;;;;;20.60;12.93;;;0.80;99.90;;;;;;5092184;28;20495;-69
2021/03/01 06:44:43;;;;;;;27.63;13.13;;;0.80;99.90;;;;;;5092150;28;20029;-70
2021/03/01 06:47:09;;;;;;;24.40;13.70;;;0.80;99.90;;;;;;5092600;28;20027;-69
2021/03/01 06:49:36;;;;;;;18.50;12.18;;;0.80;99.90;;;;;;5092690;28;20103;-69
2021/03/01 06:52:02;;;;;;;19.55;12.65;;;0.90;99.90;;;;;;5092274;28;20115;-69
2021/03/01 06:54:27;;;;;;;29.77;13.82;;;1.00;99.90;;;;;;5091523;28;20450;-69
2021/03/01 06:56:53;;;;;;;34.28;15.80;;;1.00;99.90;;;;;;5092155;28;20032;-69
2021/03/01 06:59:20;;;;;;;18.42;13.70;;;1.10;99.90;;;;;;5092172;28;20020;-69
2021/03/01 07:01:52;;;;;;;20.60;12.75;;;1.10;99.90;;;;;;5092025;28;20074;-70
2021/03/01 07:04:19;;;;;;;20.73;12.90;;;1.10;99.90;;;;;;5091920;28;20082;-68
2021/03/01 07:06:45;;;;;;;23.00;12.60;;;1.20;99.90;;;;;;5090963;28;20035;-69
2021/03/01 07:09:17;;;;;;;19.42;12.48;;;1.30;99.90;;;;;;5091954;28;20044;-69
2021/03/01 07:11:43;;;;;;;21.38;13.45;;;1.30;99.90;;;;;;5091892;28;20031;-69
2021/03/01 07:14:11;;;;;;;18.15;12.73;;;1.50;99.90;;;;;;5099641;28;20107;-70
2021/03/01 07:16:40;;;;;;;26.40;12.52;;;1.80;99.90;;;;;;5095638;28;20085;-70
2021/03/01 07:19:10;;;;;;;18.08;13.10;;;2.00;99.90;;;;;;5102094;28;20146;-70
2021/03/01 07:21:40;;;;;;;18.85;13.55;;;2.00;99.90;;;;;;5097605;28;20016;-69
2021/03/01 07:24:07;;;;;;;23.38;14.02;;;2.00;99.90;;;;;;5098579;28;20020;-69
2021/03/01 07:26:33;;;;;;;20.05;12.25;;;2.10;99.90;;;;;;5096928;28;20058;-69
2021/03/01 07:29:10;;;;;;;17.70;12.30;;;2.30;99.90;;;;;;5097823;28;20028;-69
2021/03/01 07:31:37;;;;;;;20.88;11.85;;;2.30;99.90;;;;;;5098311;28;20418;-69
2021/03/01 07:34:07;;;;;;;23.45;13.77;;;2.30;99.90;;;;;;5096698;28;20391;-69
2021/03/01 07:36:34;;;;;;;24.90;14.27;;;2.40;99.90;;;;;;5095370;28;20044;-69
2021/03/01 07:39:03;;;;;;;24.08;12.98;;;2.30;99.90;;;;;;5096186;28;20456;-69
2021/03/01 07:41:28;;;;;;;25.27;14.77;;;2.30;99.90;;;;;;5095573;28;20378;-70
2021/03/01 07:43:55;;;;;;;20.75;13.43;;;2.30;99.90;;;;;;5096570;28;20095;-69
2021/03/01 07:46:27;;;;;;;24.10;13.60;;;2.50;99.90;;;;;;5096599;28;20020;-70
2021/03/01 07:48:53;;;;;;;20.80;13.48;;;2.60;99.90;;;;;;5095878;28;20028;-70
2021/03/01 07:51:40;;;;;;;21.92;12.80;;;2.60;99.90;;;;;;5094494;28;20483;-69
2021/03/01 07:54:07;;;;;;;23.10;13.60;;;2.70;99.90;;;;;;5095265;28;20020;-69
2021/03/01 07:56:38;;;;;;;20.10;15.45;;;2.60;99.90;;;;;;5095401;28;20020;-69
2021/03/01 07:59:09;;;;;;;18.65;13.25;;;2.90;99.90;;;;;;5094123;28;20027;-69
2021/03/01 08:01:35;;;;;;;26.13;13.10;;;2.90;99.90;;;;;;5094154;28;20020;-69
2021/03/01 08:04:01;;;;;;;22.67;14.35;;;2.90;99.90;;;;;;5095445;28;20078;-70
2021/03/01 08:06:58;;;;;;;21.00;14.50;;;3.10;99.90;;;;;;5095115;28;20024;-68
2021/03/01 08:09:42;;;;;;;18.30;12.88;;;3.20;99.90;;;;;;5095420;28;20024;-70
2021/03/01 08:12:09;;;;;;;21.48;13.35;;;3.20;99.90;;;;;;5095479;28;20514;-69
2021/03/01 08:14:52;;;;;;;21.25;14.18;;;3.30;99.90;;;;;;5095643;28;20036;-69
2021/03/01 08:17:33;;;;;;;30.98;14.85;;;3.40;99.90;;;;;;5095558;28;20043;-68
2021/03/01 08:20:04;;;;;;;18.33;13.48;;;3.50;99.90;;;;;;5095851;28;20024;-69
2021/03/01 08:22:30;;;;;;;24.38;15.75;;;3.90;99.90;;;;;;5095505;28;20028;-69
2021/03/01 08:24:57;;;;;;;24.35;14.27;;;4.20;99.90;;;;;;5097559;28;20035;-69
2021/03/01 08:27:25;;;;;;;30.65;14.27;;;4.40;99.90;;;;;;5098398;28;20024;-70
2021/03/01 08:30:23;;;;;;;26.70;14.30;;;4.60;99.90;;;;;;5097657;28;20024;-70
2021/03/01 08:33:07;;;;;;;22.58;12.90;;;4.50;99.90;;;;;;5100799;28;20080;-69
2021/03/01 08:35:38;;;;;;;17.15;13.38;;;4.70;82.50;;;;;;5099919;28;20053;-69
2021/03/01 08:38:04;;;;;;;16.88;13.15;;;4.60;99.90;;;;;;5097837;28;20020;-69
2021/03/01 08:40:31;;;;;;;20.33;13.45;;;4.60;99.90;;;;;;5097398;28;20062;-68
2021/03/01 08:43:02;;;;;;;17.75;13.18;;;4.70;84.40;;;;;;5095241;28;20515;-69
2021/03/01 08:45:30;;;;;;;;;;;4.70;72.10;;;;;;5097203;28;20030;-69
2021/03/01 08:48:01;;;;;;;18.48;12.60;;;4.50;71.40;;;;;;5096743;28;19908;-71
2021/03/01 08:50:28;;;;;;;23.55;13.15;;;4.60;68.70;;;;;;5103442;28;20308;-69
2021/03/01 08:52:54;;;;;;;24.75;13.77;;;4.60;67.70;;;;;;5102822;28;20059;-69
2021/03/01 08:55:20;;;;;;;16.55;12.90;;;4.70;71.60;;;;;;5103580;28;20020;-69
2021/03/01 08:58:03;;;;;;;20.85;13.57;;;5.10;2.90;;;;;;5104372;28;20020;-69
2021/03/01 09:00:31;;;;;;;19.75;13.25;;;5.30;1.00;;;;;;5105330;28;20043;-70
2021/03/01 09:03:25;;;;;;;16.20;11.90;;;5.20;2.90;;;;;;5100675;28;20023;-70
2021/03/01 09:05:53;;;;;;;18.98;11.80;;;5.40;1.00;;;;;;5096841;28;20170;-70
2021/03/01 09:08:30;;;;;;;14.73;11.95;;;5.50;1.00;;;;;;5094885;28;20020;-70
2021/03/01 09:10:56;;;;;;;20.63;11.77;;;5.90;1.00;;;;;;5094523;28;20050;-69
2021/03/01 09:13:23;;;;;;;14.02;11.25;;;6.00;1.00;;;;;;5092158;28;20024;-70
2021/03/01 09:15:50;;;;;;;13.82;11.10;;;6.20;99.90;;;;;;5098307;28;20043;-70
2021/03/01 09:18:16;;;;;;;16.35;11.85;;;6.00;1.00;;;;;;5101910;28;20020;-69
2021/03/01 09:20:48;;;;;;;16.83;11.77;;;6.00;1.00;;;;;;5103306;28;20026;-69
2021/03/01 09:23:14;;;;;;;14.93;11.10;;;6.10;1.00;;;;;;5103013;28;20089;-70
2021/03/01 09:25:40;;;;;;;13.52;11.07;;;6.40;99.90;;;;;;5100581;28;20024;-71
2021/03/01 09:28:07;;;;;;;13.90;10.63;;;6.50;99.90;;;;;;5097171;28;20024;-68
2021/03/01 09:30:33;;;;;;;14.93;10.75;;;6.70;99.90;;;;;;5096124;28;20024;-71
2021/03/01 09:33:06;;;;;;;17.52;10.60;;;6.70;99.90;;;;;;5095675;28;20020;-70
2021/03/01 09:35:34;;;;;;;18.20;9.90;;;7.00;99.90;;;;;;5096238;28;20024;-69
2021/03/01 09:38:02;;;;;;;15.05;9.73;;;7.10;99.90;;;;;;5093904;28;20095;-69
2021/03/01 09:40:29;;;;;;;15.00;11.40;;;7.20;99.90;;;;;;5093603;28;20435;-70
2021/03/01 09:43:03;;;;;;;12.80;9.93;;;7.40;1.00;;;;;;5095457;28;20024;-70
2021/03/01 09:45:35;;;;;;;12.57;9.93;;;7.40;1.00;;;;;;5096078;28;20030;-70
2021/03/01 09:48:04;;;;;;;16.15;10.30;;;7.50;1.00;;;;;;5093433;28;20111;-69
2021/03/01 09:50:29;;;;;;;18.60;10.70;;;7.60;1.00;;;;;;5093604;28;20081;-68
2021/03/01 09:52:56;;;;;;;12.80;10.07;;;7.80;99.90;;;;;;5093462;28;20035;-68
2021/03/01 09:55:22;;;;;;;19.35;10.68;;;7.60;99.90;;;;;;5093205;28;20097;-69
2021/03/01 09:57:50;;;;;;;13.23;9.80;;;7.80;99.90;;;;;;5092183;28;20028;-70
2021/03/01 10:00:37;;;;;;;13.90;10.18;;;8.00;99.90;;;;;;5092966;28;20077;-69
2021/03/01 10:03:04;;;;;;;12.98;9.32;;;8.10;1.00;;;;;;5093042;28;20437;-69
2021/03/01 10:05:32;;;;;;;10.88;9.43;;;8.20;99.90;;;;;;5092753;28;20115;-71
2021/03/01 10:08:05;;;;;;;10.70;9.07;;;8.20;99.90;;;;;;5092653;28;20032;-70
2021/03/01 10:10:40;;;;;;;10.57;9.48;;;8.40;99.90;;;;;;5091594;28;20028;-70
2021/03/01 10:13:07;;;;;;;10.73;8.43;;;8.50;44.50;;;;;;5092449;28;20028;-70
2021/03/01 10:15:47;;;;;;;9.23;8.23;;;8.60;99.90;;;;;;5092456;28;20048;-70
2021/03/01 10:18:14;;;;;;;10.80;8.73;;;8.80;25.30;;;;;;5093201;28;20104;-69
2021/03/01 10:20:57;;;;;;;9.27;8.32;;;8.60;99.90;;;;;;5092878;28;20124;-71
2021/03/01 10:23:46;;;;;;;12.45;9.45;;;8.80;99.90;;;;;;5092497;28;20054;-69
2021/03/01 10:26:21;;;;;;;11.50;8.55;;;8.90;1.00;;;;;;5082776;28;20043;-70
2021/03/01 10:29:01;;;;;;;12.73;8.13;;;8.90;1.00;;;;;;5093067;28;20455;-71
2021/03/01 10:31:33;;;;;;;12.50;8.57;;;9.10;99.90;;;;;;5092258;28;20190;-70
2021/03/01 10:34:05;;;;;;;14.90;9.68;;;9.20;1.00;;;;;;5093005;28;20036;-69
2021/03/01 10:36:49;;;;;;;10.95;8.75;;;9.20;1.00;;;;;;5093608;28;20046;-72
2021/03/01 10:39:20;;;;;;;10.13;8.68;;;9.30;1.00;;;;;;5093102;28;20024;-71
2021/03/01 10:41:51;;;;;;;9.85;8.35;;;9.40;99.90;;;;;;5092255;28;20035;-71
2021/03/01 10:44:25;;;;;;;9.77;8.05;;;9.50;99.90;;;;;;5093696;28;20055;-70
2021/03/01 10:46:51;;;;;;;9.90;8.93;;;9.70;1.00;;;;;;5093454;28;20054;-70
2021/03/01 10:49:22;;;;;;;13.70;7.43;;;9.80;99.90;;;;;;5093969;28;20480;-70
2021/03/01 10:51:49;;;;;;;9.98;8.43;;;9.80;1.00;;;;;;5092741;28;20085;-70
2021/03/01 10:54:15;;;;;;;9.02;8.10;;;9.80;1.00;;;;;;5093226;28;20020;-71
2021/03/01 10:56:41;;;;;;;12.90;8.57;;;9.80;99.90;;;;;;5092878;28;20050;-69
2021/03/01 10:59:07;;;;;;;13.18;8.73;;;10.00;99.90;;;;;;5093191;28;20070;-70
2021/03/01 11:01:34;;;;;;;14.65;8.95;;;10.00;99.90;;;;;;5092703;28;20495;-69
2021/03/01 11:04:00;;;;;;;18.55;9.32;;;10.20;99.90;;;;;;5091357;28;20028;-69
2021/03/01 11:06:25;;;;;;;9.60;8.13;;;10.40;69.00;;;;;;5094072;28;20031;-70
2021/03/01 11:08:51;;;;;;;10.73;8.02;;;10.60;99.90;;;;;;5095443;28;20019;-69
2021/03/01 11:11:17;;;;;;;9.48;8.50;;;10.70;65.90;;;;;;5096059;28;20165;-69
2021/03/01 11:13:42;;;;;;;11.20;8.30;;;10.70;51.30;;;;;;5095462;28;20502;-70
2021/03/01 11:16:08;;;;;;;8.65;7.10;;;10.50;99.90;;;;;;5095953;28;20024;-70
2021/03/01 11:18:34;;;;;;;12.73;10.13;;;10.40;1.00;;;;;;5095725;28;20095;-70
2021/03/01 11:20:59;;;;;;;9.27;7.43;;;10.50;1.00;;;;;;5095910;28;20022;-69
2021/03/01 11:23:25;;;;;;;10.02;7.82;;;10.80;1.00;;;;;;5095572;28;20028;-69
2021/03/01 11:25:50;;;;;;;9.82;8.13;;;10.80;1.00;;;;;;5095627;28;20024;-69
2021/03/01 11:28:16;;;;;;;11.43;7.53;;;11.00;76.00;;;;;;5095710;28;20020;-68
2021/03/01 11:30:42;;;;;;;13.23;8.50;;;11.10;99.90;;;;;;5095966;28;20052;-71
2021/03/01 11:33:08;;;;;;;13.77;8.63;;;11.30;1.00;;;;;;5095384;28;20020;-70
2021/03/01 11:35:34;;;;;;;8.93;8.02;;;11.10;1.00;;;;;;5095740;28;20099;-69
2021/03/01 11:38:00;;;;;;;9.30;7.70;;;11.10;1.00;;;;;;5095348;28;20016;-70
2021/03/01 11:40:25;;;;;;;13.85;8.00;;;11.20;99.90;;;;;;5095460;28;20028;-69
2021/03/01 11:42:51;;;;;;;10.05;7.25;;;11.40;1.00;;;;;;5095110;28;20036;-70
2021/03/01 11:45:17;;;;;;;9.00;7.32;;;11.80;99.90;;;;;;5095869;28;20024;-70
2021/03/01 11:47:42;;;;;;;12.25;7.88;;;11.90;68.80;;;;;;5095417;28;20025;-70
2021/03/01 11:50:08;;;;;;;7.45;4.93;;;12.10;1.00;;;;;;5094191;28;20072;-70
2021/03/01 11:52:34;;;;;;;5.55;4.93;;;12.50;99.90;;;;;;5095518;28;20031;-70
2021/03/01 11:54:59;;;;;;;8.43;5.97;;;12.60;99.90;;;;;;5094252;28;20387;-68
2021/03/01 11:57:28;;;;;;;5.68;4.78;;;12.70;99.90;;;;;;5095456;28;20090;-69
2021/03/01 11:59:54;;;;;;;6.47;4.55;;;12.80;99.90;;;;;;5094111;28;20118;-70
2021/03/01 12:02:19;;;;;;;5.90;4.60;;;12.90;99.90;;;;;;5095402;28;20020;-70
2021/03/01 12:04:45;;;;;;;5.80;5.15;;;12.90;99.90;;;;;;5098874;28;20039;-70
2021/03/01 12:07:11;;;;;;;5.75;4.80;;;13.00;99.90;;;;;;5097769;28;20024;-70
2021/03/01 12:09:36;;;;;;;6.95;4.60;;;13.20;99.90;;;;;;5096622;28;20032;-69
2021/03/01 12:12:02;;;;;;;16.50;5.78;;;13.30;99.90;;;;;;5096479;28;20035;-69
2021/03/01 12:14:28;;;;;;;7.35;4.97;;;13.30;99.90;;;;;;5095412;28;20035;-71
2021/03/01 12:16:54;;;;;;;9.65;4.55;;;13.30;99.90;;;;;;5095415;28;20150;-70
2021/03/01 12:19:19;;;;;;;5.15;4.65;;;13.30;99.90;;;;;;5094449;28;20016;-70
2021/03/01 12:21:45;;;;;;;5.95;4.25;;;13.40;99.50;;;;;;5093967;28;20056;-71
2021/03/01 12:24:12;;;;;;;6.45;4.13;;;13.40;95.60;;;;;;5095516;28;20022;-70
2021/03/01 12:26:38;;;;;;;6.75;4.25;;;13.60;92.90;;;;;;5094889;28;20391;-69
2021/03/01 12:29:03;;;;;;;4.13;3.60;;;13.60;89.50;;;;;;5094846;28;20024;-70
2021/03/01 12:31:29;;;;;;;6.18;3.40;;;13.70;86.30;;;;;;5094561;28;20034;-70
2021/03/01 12:33:55;;;;;;;4.75;3.63;;;13.70;80.20;;;;;;5094369;28;20035;-69
2021/03/01 12:36:20;;;;;;;4.63;3.80;;;13.90;77.70;;;;;;5094954;28;20031;-70
2021/03/01 12:38:46;;;;;;;12.00;4.18;;;13.80;72.50;;;;;;5094788;28;20024;-70
2021/03/01 12:41:13;;;;;;;3.88;2.92;;;13.70;69.70;;;;;;5094957;28;20024;-70
2021/03/01 12:43:38;;;;;;;5.85;4.10;;;13.90;80.20;;;;;;5094492;28;20024;-71
2021/03/01 12:46:04;;;;;;;4.25;3.53;;;14.10;65.20;;;;;;5095004;28;20030;-70